sensor_id;sensor_type;location;lat;lon;timestamp;P1;durP1;ratioP1;P2;durP2;ratioP2
71490;SDS011;59307;50.060;9.150;2022-07-23T00:00:42;8.73;;;5.88;;
71490;SDS011;59307;50.060;9.150;2022-07-23T00:03:07;8.93;;;6.10;;
71490;SDS011;59307;50.060;9.150;2022-07-23T00:05:32;11.70;;;6.50;;
71490;SDS011;59307;50.060;9.150;2022-07-23T00:07:58;13.23;;;7.77;;
71490;SDS011;59307;50.060;9.150;2022-07-23T00:10:23;10.40;;;6.83;;
71490;SDS011;59307;50.060;9.150;2022-07-23T00:12:48;9.70;;;6.90;;
71490;SDS011;59307;50.060;9.150;2022-07-23T00:15:13;9.60;;;6.27;;
71490;SDS011;59307;50.060;9.150;2022-07-23T00:17:38;10.23;;;6.37;;
71490;SDS011;59307;50.060;9.150;2022-07-23T00:20:04;9.63;;;6.30;;
71490;SDS011;59307;50.060;9.150;2022-07-23T00:22:29;9.53;;;6.50;;
71490;SDS011;59307;50.060;9.150;2022-07-23T00:24:57;11.40;;;7.07;;
71490;SDS011;59307;50.060;9.150;2022-07-23T00:27:23;8.98;;;6.90;;
71490;SDS011;59307;50.060;9.150;2022-07-23T00:29:48;10.07;;;6.90;;
71490;SDS011;59307;50.060;9.150;2022-07-23T00:32:13;10.93;;;6.50;;
71490;SDS011;59307;50.060;9.150;2022-07-23T00:34:38;11.70;;;6.93;;
71490;SDS011;59307;50.060;9.150;2022-07-23T00:37:03;10.20;;;6.90;;
71490;SDS011;59307;50.060;9.150;2022-07-23T00:39:28;14.33;;;6.80;;
71490;SDS011;59307;50.060;9.150;2022-07-23T00:41:54;12.97;;;6.90;;
71490;SDS011;59307;50.060;9.150;2022-07-23T00:44:22;12.77;;;6.70;;
71490;SDS011;59307;50.060;9.150;2022-07-23T00:46:49;11.65;;;6.45;;
71490;SDS011;59307;50.060;9.150;2022-07-23T00:49:14;12.05;;;6.97;;
71490;SDS011;59307;50.060;9.150;2022-07-23T00:51:40;10.70;;;6.97;;
71490;SDS011;59307;50.060;9.150;2022-07-23T00:54:05;12.83;;;7.00;;
71490;SDS011;59307;50.060;9.150;2022-07-23T00:56:30;9.10;;;6.50;;
71490;SDS011;59307;50.060;9.150;2022-07-23T00:58:55;10.70;;;6.20;;
71490;SDS011;59307;50.060;9.150;2022-07-23T01:01:21;9.80;;;6.20;;
71490;SDS011;59307;50.060;9.150;2022-07-23T01:03:46;9.87;;;6.47;;
71490;SDS011;59307;50.060;9.150;2022-07-23T01:06:11;12.90;;;6.60;;
71490;SDS011;59307;50.060;9.150;2022-07-23T01:08:37;10.47;;;6.30;;
71490;SDS011;59307;50.060;9.150;2022-07-23T01:11:02;11.10;;;6.45;;
71490;SDS011;59307;50.060;9.150;2022-07-23T01:13:29;11.20;;;6.70;;
71490;SDS011;59307;50.060;9.150;2022-07-23T01:15:54;10.40;;;7.00;;
71490;SDS011;59307;50.060;9.150;2022-07-23T01:18:19;9.33;;;6.47;;
71490;SDS011;59307;50.060;9.150;2022-07-23T01:20:44;9.70;;;7.05;;
71490;SDS011;59307;50.060;9.150;2022-07-23T01:23:09;10.93;;;7.10;;
71490;SDS011;59307;50.060;9.150;2022-07-23T01:25:34;10.95;;;6.60;;
71490;SDS011;59307;50.060;9.150;2022-07-23T01:28:00;9.73;;;6.63;;
71490;SDS011;59307;50.060;9.150;2022-07-23T01:30:25;11.33;;;6.63;;
71490;SDS011;59307;50.060;9.150;2022-07-23T01:32:50;9.73;;;6.87;;
71490;SDS011;59307;50.060;9.150;2022-07-23T01:35:15;10.07;;;6.50;;
71490;SDS011;59307;50.060;9.150;2022-07-23T01:37:41;9.83;;;6.07;;
71490;SDS011;59307;50.060;9.150;2022-07-23T01:40:06;17.07;;;6.27;;
71490;SDS011;59307;50.060;9.150;2022-07-23T01:42:32;11.40;;;6.17;;
71490;SDS011;59307;50.060;9.150;2022-07-23T01:44:57;9.85;;;5.93;;
71490;SDS011;59307;50.060;9.150;2022-07-23T01:47:22;8.53;;;5.57;;
71490;SDS011;59307;50.060;9.150;2022-07-23T01:49:47;7.47;;;5.40;;
71490;SDS011;59307;50.060;9.150;2022-07-23T01:52:13;8.07;;;5.60;;
71490;SDS011;59307;50.060;9.150;2022-07-23T01:54:38;9.33;;;5.47;;
71490;SDS011;59307;50.060;9.150;2022-07-23T01:57:04;9.18;;;5.35;;
71490;SDS011;59307;50.060;9.150;2022-07-23T01:59:30;7.37;;;4.97;;
71490;SDS011;59307;50.060;9.150;2022-07-23T02:01:55;9.37;;;5.30;;
71490;SDS011;59307;50.060;9.150;2022-07-23T02:04:20;7.17;;;5.13;;
71490;SDS011;59307;50.060;9.150;2022-07-23T02:06:46;8.47;;;4.93;;
71490;SDS011;59307;50.060;9.150;2022-07-23T02:09:12;7.97;;;5.00;;
71490;SDS011;59307;50.060;9.150;2022-07-23T02:20:43;9.65;;;6.07;;
71490;SDS011;59307;50.060;9.150;2022-07-23T02:23:09;10.32;;;5.93;;
71490;SDS011;59307;50.060;9.150;2022-07-23T02:25:34;11.17;;;6.10;;
71490;SDS011;59307;50.060;9.150;2022-07-23T02:28:00;8.63;;;5.63;;
71490;SDS011;59307;50.060;9.150;2022-07-23T02:30:25;9.50;;;5.40;;
71490;SDS011;59307;50.060;9.150;2022-07-23T02:32:50;10.40;;;5.90;;
71490;SDS011;59307;50.060;9.150;2022-07-23T02:35:15;10.60;;;5.43;;
71490;SDS011;59307;50.060;9.150;2022-07-23T02:37:40;10.37;;;6.20;;
71490;SDS011;59307;50.060;9.150;2022-07-23T02:40:06;8.43;;;5.60;;
71490;SDS011;59307;50.060;9.150;2022-07-23T02:42:31;11.07;;;6.10;;
71490;SDS011;59307;50.060;9.150;2022-07-23T02:44:56;8.97;;;5.80;;
71490;SDS011;59307;50.060;9.150;2022-07-23T02:47:21;8.67;;;5.60;;
71490;SDS011;59307;50.060;9.150;2022-07-23T02:49:46;13.33;;;6.20;;
71490;SDS011;59307;50.060;9.150;2022-07-23T02:52:12;9.57;;;6.03;;
71490;SDS011;59307;50.060;9.150;2022-07-23T02:54:37;9.57;;;5.77;;
71490;SDS011;59307;50.060;9.150;2022-07-23T02:57:03;7.97;;;5.40;;
71490;SDS011;59307;50.060;9.150;2022-07-23T02:59:28;10.40;;;5.87;;
71490;SDS011;59307;50.060;9.150;2022-07-23T03:01:53;7.77;;;5.00;;
71490;SDS011;59307;50.060;9.150;2022-07-23T03:04:18;9.97;;;5.70;;
71490;SDS011;59307;50.060;9.150;2022-07-23T03:06:43;7.73;;;5.70;;
71490;SDS011;59307;50.060;9.150;2022-07-23T03:09:09;8.23;;;5.50;;
71490;SDS011;59307;50.060;9.150;2022-07-23T03:11:34;10.45;;;5.68;;
71490;SDS011;59307;50.060;9.150;2022-07-23T03:13:59;9.60;;;5.67;;
71490;SDS011;59307;50.060;9.150;2022-07-23T03:16:25;12.77;;;6.13;;
71490;SDS011;59307;50.060;9.150;2022-07-23T03:18:50;8.47;;;5.50;;
71490;SDS011;59307;50.060;9.150;2022-07-23T03:21:15;9.67;;;5.70;;
71490;SDS011;59307;50.060;9.150;2022-07-23T03:23:40;9.07;;;5.27;;
71490;SDS011;59307;50.060;9.150;2022-07-23T03:26:05;8.63;;;5.50;;
71490;SDS011;59307;50.060;9.150;2022-07-23T03:28:31;9.23;;;5.73;;
71490;SDS011;59307;50.060;9.150;2022-07-23T03:30:56;9.07;;;5.93;;
71490;SDS011;59307;50.060;9.150;2022-07-23T03:33:21;10.03;;;6.03;;
71490;SDS011;59307;50.060;9.150;2022-07-23T03:35:46;8.27;;;5.53;;
71490;SDS011;59307;50.060;9.150;2022-07-23T03:38:12;12.80;;;5.83;;
71490;SDS011;59307;50.060;9.150;2022-07-23T03:40:37;8.73;;;5.50;;
71490;SDS011;59307;50.060;9.150;2022-07-23T03:43:02;10.53;;;5.90;;
71490;SDS011;59307;50.060;9.150;2022-07-23T03:45:27;9.90;;;5.57;;
71490;SDS011;59307;50.060;9.150;2022-07-23T03:47:53;10.23;;;5.67;;
71490;SDS011;59307;50.060;9.150;2022-07-23T03:50:18;10.23;;;6.00;;
71490;SDS011;59307;50.060;9.150;2022-07-23T03:52:43;10.77;;;5.93;;
71490;SDS011;59307;50.060;9.150;2022-07-23T03:55:08;10.30;;;6.17;;
71490;SDS011;59307;50.060;9.150;2022-07-23T03:57:34;8.80;;;6.07;;
71490;SDS011;59307;50.060;9.150;2022-07-23T03:59:59;11.57;;;5.97;;
71490;SDS011;59307;50.060;9.150;2022-07-23T04:02:24;10.47;;;6.10;;
71490;SDS011;59307;50.060;9.150;2022-07-23T04:04:49;9.50;;;5.97;;
71490;SDS011;59307;50.060;9.150;2022-07-23T04:07:15;13.10;;;6.83;;
71490;SDS011;59307;50.060;9.150;2022-07-23T04:09:42;12.63;;;6.50;;
71490;SDS011;59307;50.060;9.150;2022-07-23T04:12:07;11.53;;;6.77;;
71490;SDS011;59307;50.060;9.150;2022-07-23T04:14:33;10.87;;;5.93;;
71490;SDS011;59307;50.060;9.150;2022-07-23T04:16:58;10.53;;;6.00;;
71490;SDS011;59307;50.060;9.150;2022-07-23T04:19:23;9.65;;;6.28;;
71490;SDS011;59307;50.060;9.150;2022-07-23T04:21:49;9.93;;;6.53;;
71490;SDS011;59307;50.060;9.150;2022-07-23T04:24:15;11.27;;;6.60;;
71490;SDS011;59307;50.060;9.150;2022-07-23T04:26:40;11.77;;;6.43;;
71490;SDS011;59307;50.060;9.150;2022-07-23T04:29:05;9.53;;;5.90;;
71490;SDS011;59307;50.060;9.150;2022-07-23T04:31:30;10.97;;;6.83;;
71490;SDS011;59307;50.060;9.150;2022-07-23T04:33:55;12.20;;;6.40;;
71490;SDS011;59307;50.060;9.150;2022-07-23T04:36:20;11.83;;;5.90;;
71490;SDS011;59307;50.060;9.150;2022-07-23T04:38:46;10.77;;;5.97;;
71490;SDS011;59307;50.060;9.150;2022-07-23T04:41:11;11.00;;;6.20;;
71490;SDS011;59307;50.060;9.150;2022-07-23T04:43:36;9.40;;;6.43;;
71490;SDS011;59307;50.060;9.150;2022-07-23T04:46:01;11.60;;;6.40;;
71490;SDS011;59307;50.060;9.150;2022-07-23T04:48:26;10.53;;;6.10;;
71490;SDS011;59307;50.060;9.150;2022-07-23T04:50:52;12.87;;;6.40;;
71490;SDS011;59307;50.060;9.150;2022-07-23T04:53:17;11.03;;;6.40;;
71490;SDS011;59307;50.060;9.150;2022-07-23T04:55:43;10.20;;;6.25;;
71490;SDS011;59307;50.060;9.150;2022-07-23T04:58:08;12.07;;;6.53;;
71490;SDS011;59307;50.060;9.150;2022-07-23T05:00:33;11.13;;;6.33;;
71490;SDS011;59307;50.060;9.150;2022-07-23T05:02:59;13.07;;;6.73;;
71490;SDS011;59307;50.060;9.150;2022-07-23T05:05:24;11.60;;;7.07;;
71490;SDS011;59307;50.060;9.150;2022-07-23T05:07:49;10.90;;;7.50;;
71490;SDS011;59307;50.060;9.150;2022-07-23T05:10:14;12.00;;;7.87;;
71490;SDS011;59307;50.060;9.150;2022-07-23T05:12:39;12.33;;;7.30;;
71490;SDS011;59307;50.060;9.150;2022-07-23T05:15:05;11.40;;;6.80;;
71490;SDS011;59307;50.060;9.150;2022-07-23T05:17:30;9.97;;;6.07;;
71490;SDS011;59307;50.060;9.150;2022-07-23T05:19:55;10.30;;;6.43;;
71490;SDS011;59307;50.060;9.150;2022-07-23T05:22:20;13.47;;;6.63;;
71490;SDS011;59307;50.060;9.150;2022-07-23T05:24:45;12.20;;;7.27;;
71490;SDS011;59307;50.060;9.150;2022-07-23T05:27:10;12.77;;;6.97;;
71490;SDS011;59307;50.060;9.150;2022-07-23T05:29:36;10.37;;;6.57;;
71490;SDS011;59307;50.060;9.150;2022-07-23T05:32:01;11.47;;;6.30;;
71490;SDS011;59307;50.060;9.150;2022-07-23T05:34:26;10.37;;;6.27;;
71490;SDS011;59307;50.060;9.150;2022-07-23T05:36:51;10.63;;;7.03;;
71490;SDS011;59307;50.060;9.150;2022-07-23T05:39:16;13.10;;;6.80;;
71490;SDS011;59307;50.060;9.150;2022-07-23T05:41:42;10.43;;;6.30;;
71490;SDS011;59307;50.060;9.150;2022-07-23T05:44:07;10.23;;;6.27;;
71490;SDS011;59307;50.060;9.150;2022-07-23T05:46:33;9.85;;;6.13;;
71490;SDS011;59307;50.060;9.150;2022-07-23T05:48:58;9.00;;;6.00;;
71490;SDS011;59307;50.060;9.150;2022-07-23T05:51:23;11.73;;;6.23;;
71490;SDS011;59307;50.060;9.150;2022-07-23T05:53:49;9.60;;;6.07;;
71490;SDS011;59307;50.060;9.150;2022-07-23T05:56:15;12.52;;;6.43;;
71490;SDS011;59307;50.060;9.150;2022-07-23T05:58:40;12.10;;;6.20;;
71490;SDS011;59307;50.060;9.150;2022-07-23T06:01:05;10.50;;;6.30;;
71490;SDS011;59307;50.060;9.150;2022-07-23T06:03:30;8.73;;;5.73;;
71490;SDS011;59307;50.060;9.150;2022-07-23T06:05:56;10.33;;;6.00;;
71490;SDS011;59307;50.060;9.150;2022-07-23T06:08:21;11.07;;;6.37;;
71490;SDS011;59307;50.060;9.150;2022-07-23T06:10:46;10.73;;;6.00;;
71490;SDS011;59307;50.060;9.150;2022-07-23T06:13:11;10.83;;;6.30;;
71490;SDS011;59307;50.060;9.150;2022-07-23T06:15:36;9.17;;;5.97;;
71490;SDS011;59307;50.060;9.150;2022-07-23T06:18:02;11.53;;;6.50;;
71490;SDS011;59307;50.060;9.150;2022-07-23T06:20:27;11.70;;;6.03;;
71490;SDS011;59307;50.060;9.150;2022-07-23T06:22:52;15.27;;;6.70;;
71490;SDS011;59307;50.060;9.150;2022-07-23T06:25:17;9.50;;;6.20;;
71490;SDS011;59307;50.060;9.150;2022-07-23T06:27:42;10.03;;;6.20;;
71490;SDS011;59307;50.060;9.150;2022-07-23T06:30:08;10.13;;;5.40;;
71490;SDS011;59307;50.060;9.150;2022-07-23T06:32:33;10.00;;;5.50;;
71490;SDS011;59307;50.060;9.150;2022-07-23T06:34:58;9.90;;;6.13;;
71490;SDS011;59307;50.060;9.150;2022-07-23T06:37:23;10.13;;;5.93;;
71490;SDS011;59307;50.060;9.150;2022-07-23T06:39:49;8.67;;;5.83;;
71490;SDS011;59307;50.060;9.150;2022-07-23T06:42:14;10.77;;;6.27;;
71490;SDS011;59307;50.060;9.150;2022-07-23T06:44:40;8.47;;;5.63;;
71490;SDS011;59307;50.060;9.150;2022-07-23T06:47:05;11.20;;;5.80;;
71490;SDS011;59307;50.060;9.150;2022-07-23T06:49:30;11.20;;;6.10;;
71490;SDS011;59307;50.060;9.150;2022-07-23T06:51:55;9.40;;;5.47;;
71490;SDS011;59307;50.060;9.150;2022-07-23T06:54:20;8.93;;;5.70;;
71490;SDS011;59307;50.060;9.150;2022-07-23T06:56:45;10.57;;;5.87;;
71490;SDS011;59307;50.060;9.150;2022-07-23T06:59:11;10.10;;;6.13;;
71490;SDS011;59307;50.060;9.150;2022-07-23T07:01:36;8.63;;;5.80;;
71490;SDS011;59307;50.060;9.150;2022-07-23T07:04:01;9.00;;;5.67;;
71490;SDS011;59307;50.060;9.150;2022-07-23T07:06:26;9.53;;;5.80;;
71490;SDS011;59307;50.060;9.150;2022-07-23T07:08:51;12.97;;;6.30;;
71490;SDS011;59307;50.060;9.150;2022-07-23T07:11:16;10.60;;;6.00;;
71490;SDS011;59307;50.060;9.150;2022-07-23T07:13:42;9.67;;;5.83;;
71490;SDS011;59307;50.060;9.150;2022-07-23T07:16:07;9.33;;;5.93;;
71490;SDS011;59307;50.060;9.150;2022-07-23T07:18:32;9.23;;;5.80;;
71490;SDS011;59307;50.060;9.150;2022-07-23T07:20:57;9.47;;;5.77;;
71490;SDS011;59307;50.060;9.150;2022-07-23T07:23:23;10.23;;;6.27;;
71490;SDS011;59307;50.060;9.150;2022-07-23T07:25:48;9.47;;;6.10;;
71490;SDS011;59307;50.060;9.150;2022-07-23T07:28:13;11.33;;;5.93;;
71490;SDS011;59307;50.060;9.150;2022-07-23T07:30:38;9.13;;;6.13;;
71490;SDS011;59307;50.060;9.150;2022-07-23T07:33:04;11.67;;;5.87;;
71490;SDS011;59307;50.060;9.150;2022-07-23T07:35:29;7.87;;;5.57;;
71490;SDS011;59307;50.060;9.150;2022-07-23T07:37:56;9.13;;;5.07;;
71490;SDS011;59307;50.060;9.150;2022-07-23T07:40:21;7.83;;;5.30;;
71490;SDS011;59307;50.060;9.150;2022-07-23T07:42:47;10.20;;;5.30;;
71490;SDS011;59307;50.060;9.150;2022-07-23T07:45:12;7.25;;;5.20;;
71490;SDS011;59307;50.060;9.150;2022-07-23T07:47:37;8.40;;;5.33;;
71490;SDS011;59307;50.060;9.150;2022-07-23T07:50:02;8.10;;;5.53;;
71490;SDS011;59307;50.060;9.150;2022-07-23T07:52:27;9.67;;;5.73;;
71490;SDS011;59307;50.060;9.150;2022-07-23T07:54:53;9.00;;;5.40;;
71490;SDS011;59307;50.060;9.150;2022-07-23T07:57:18;8.70;;;5.50;;
71490;SDS011;59307;50.060;9.150;2022-07-23T07:59:43;9.63;;;5.57;;
71490;SDS011;59307;50.060;9.150;2022-07-23T08:02:08;9.30;;;5.70;;
71490;SDS011;59307;50.060;9.150;2022-07-23T08:04:33;10.53;;;6.30;;
71490;SDS011;59307;50.060;9.150;2022-07-23T08:06:59;8.53;;;5.97;;
71490;SDS011;59307;50.060;9.150;2022-07-23T08:09:24;9.23;;;5.37;;
71490;SDS011;59307;50.060;9.150;2022-07-23T08:11:49;8.97;;;5.30;;
71490;SDS011;59307;50.060;9.150;2022-07-23T08:14:16;8.48;;;5.50;;
71490;SDS011;59307;50.060;9.150;2022-07-23T08:16:41;8.57;;;5.63;;
71490;SDS011;59307;50.060;9.150;2022-07-23T08:19:07;10.53;;;6.03;;
71490;SDS011;59307;50.060;9.150;2022-07-23T08:21:32;7.53;;;4.97;;
71490;SDS011;59307;50.060;9.150;2022-07-23T08:23:57;8.37;;;5.80;;
71490;SDS011;59307;50.060;9.150;2022-07-23T08:26:22;10.60;;;5.97;;
71490;SDS011;59307;50.060;9.150;2022-07-23T08:28:47;9.40;;;5.43;;
71490;SDS011;59307;50.060;9.150;2022-07-23T08:31:13;8.73;;;5.50;;
71490;SDS011;59307;50.060;9.150;2022-07-23T08:33:40;8.70;;;5.25;;
71490;SDS011;59307;50.060;9.150;2022-07-23T08:36:05;9.87;;;5.70;;
71490;SDS011;59307;50.060;9.150;2022-07-23T08:38:30;12.93;;;5.97;;
71490;SDS011;59307;50.060;9.150;2022-07-23T08:40:56;8.38;;;4.70;;
71490;SDS011;59307;50.060;9.150;2022-07-23T08:43:25;9.87;;;5.40;;
71490;SDS011;59307;50.060;9.150;2022-07-23T08:45:52;8.20;;;5.25;;
71490;SDS011;59307;50.060;9.150;2022-07-23T08:48:18;8.18;;;5.20;;
71490;SDS011;59307;50.060;9.150;2022-07-23T08:50:47;9.25;;;5.30;;
71490;SDS011;59307;50.060;9.150;2022-07-23T08:53:13;8.93;;;5.20;;
71490;SDS011;59307;50.060;9.150;2022-07-23T08:55:38;8.73;;;5.30;;
71490;SDS011;59307;50.060;9.150;2022-07-23T08:58:03;9.63;;;5.60;;
71490;SDS011;59307;50.060;9.150;2022-07-23T09:00:29;8.57;;;5.20;;
71490;SDS011;59307;50.060;9.150;2022-07-23T09:02:54;8.73;;;5.60;;
71490;SDS011;59307;50.060;9.150;2022-07-23T09:05:20;8.13;;;5.13;;
71490;SDS011;59307;50.060;9.150;2022-07-23T09:10:29;8.40;;;5.90;;
71490;SDS011;59307;50.060;9.150;2022-07-23T09:12:55;8.50;;;5.60;;
71490;SDS011;59307;50.060;9.150;2022-07-23T09:15:20;9.10;;;5.43;;
71490;SDS011;59307;50.060;9.150;2022-07-23T09:17:45;13.97;;;5.80;;
71490;SDS011;59307;50.060;9.150;2022-07-23T09:20:11;8.27;;;5.87;;
71490;SDS011;59307;50.060;9.150;2022-07-23T09:22:37;10.07;;;5.95;;
71490;SDS011;59307;50.060;9.150;2022-07-23T09:25:04;8.83;;;5.57;;
71490;SDS011;59307;50.060;9.150;2022-07-23T09:27:49;8.60;;;5.40;;
71490;SDS011;59307;50.060;9.150;2022-07-23T09:30:15;9.32;;;5.80;;
71490;SDS011;59307;50.060;9.150;2022-07-23T09:32:40;9.13;;;5.33;;
71490;SDS011;59307;50.060;9.150;2022-07-23T09:35:06;9.63;;;5.97;;
71490;SDS011;59307;50.060;9.150;2022-07-23T09:37:31;10.65;;;5.55;;
71490;SDS011;59307;50.060;9.150;2022-07-23T09:40:03;8.27;;;5.70;;
71490;SDS011;59307;50.060;9.150;2022-07-23T09:42:29;10.90;;;6.45;;
71490;SDS011;59307;50.060;9.150;2022-07-23T09:44:55;8.93;;;5.80;;
71490;SDS011;59307;50.060;9.150;2022-07-23T09:47:21;13.05;;;6.30;;
71490;SDS011;59307;50.060;9.150;2022-07-23T09:50:06;10.97;;;6.40;;
71490;SDS011;59307;50.060;9.150;2022-07-23T09:52:35;10.05;;;6.30;;
71490;SDS011;59307;50.060;9.150;2022-07-23T09:55:02;7.78;;;5.47;;
71490;SDS011;59307;50.060;9.150;2022-07-23T09:57:28;9.07;;;5.60;;
71490;SDS011;59307;50.060;9.150;2022-07-23T09:59:53;7.63;;;5.53;;
71490;SDS011;59307;50.060;9.150;2022-07-23T10:02:20;9.40;;;5.72;;
71490;SDS011;59307;50.060;9.150;2022-07-23T10:04:46;7.80;;;5.87;;
71490;SDS011;59307;50.060;9.150;2022-07-23T10:07:12;9.57;;;5.82;;
71490;SDS011;59307;50.060;9.150;2022-07-23T10:09:41;8.15;;;5.20;;
71490;SDS011;59307;50.060;9.150;2022-07-23T10:12:13;8.07;;;5.20;;
71490;SDS011;59307;50.060;9.150;2022-07-23T10:14:44;8.03;;;5.87;;
71490;SDS011;59307;50.060;9.150;2022-07-23T10:17:10;8.50;;;5.90;;
71490;SDS011;59307;50.060;9.150;2022-07-23T10:19:35;8.90;;;5.50;;
71490;SDS011;59307;50.060;9.150;2022-07-23T10:22:05;10.83;;;5.73;;
71490;SDS011;59307;50.060;9.150;2022-07-23T10:32:05;11.13;;;5.85;;
71490;SDS011;59307;50.060;9.150;2022-07-23T10:37:27;11.00;;;5.67;;
71490;SDS011;59307;50.060;9.150;2022-07-23T10:42:34;9.02;;;5.72;;
71490;SDS011;59307;50.060;9.150;2022-07-23T10:45:00;9.13;;;5.53;;
71490;SDS011;59307;50.060;9.150;2022-07-23T10:47:26;8.43;;;5.47;;
71490;SDS011;59307;50.060;9.150;2022-07-23T10:52:42;8.80;;;5.40;;
71490;SDS011;59307;50.060;9.150;2022-07-23T10:57:52;10.57;;;6.07;;
71490;SDS011;59307;50.060;9.150;2022-07-23T11:00:21;7.63;;;5.63;;
71490;SDS011;59307;50.060;9.150;2022-07-23T11:02:48;10.68;;;5.35;;
71490;SDS011;59307;50.060;9.150;2022-07-23T11:05:15;8.27;;;5.45;;
71490;SDS011;59307;50.060;9.150;2022-07-23T11:10:41;7.87;;;5.33;;
71490;SDS011;59307;50.060;9.150;2022-07-23T11:34:33;8.85;;;6.28;;
71490;SDS011;59307;50.060;9.150;2022-07-23T11:36:59;9.33;;;5.67;;
71490;SDS011;59307;50.060;9.150;2022-07-23T11:39:25;10.15;;;5.78;;
71490;SDS011;59307;50.060;9.150;2022-07-23T11:41:51;9.10;;;5.57;;
71490;SDS011;59307;50.060;9.150;2022-07-23T11:46:57;8.63;;;5.38;;
71490;SDS011;59307;50.060;9.150;2022-07-23T11:49:23;9.95;;;5.30;;
71490;SDS011;59307;50.060;9.150;2022-07-23T11:54:32;6.75;;;4.82;;
71490;SDS011;59307;50.060;9.150;2022-07-23T11:56:58;8.25;;;5.13;;
71490;SDS011;59307;50.060;9.150;2022-07-23T11:59:24;8.57;;;4.93;;
71490;SDS011;59307;50.060;9.150;2022-07-23T12:02:00;8.60;;;5.20;;
71490;SDS011;59307;50.060;9.150;2022-07-23T12:09:54;8.37;;;5.13;;
71490;SDS011;59307;50.060;9.150;2022-07-23T12:12:19;8.30;;;4.70;;
71490;SDS011;59307;50.060;9.150;2022-07-23T12:14:55;7.20;;;5.17;;
71490;SDS011;59307;50.060;9.150;2022-07-23T12:17:21;9.05;;;5.07;;
71490;SDS011;59307;50.060;9.150;2022-07-23T12:19:51;9.77;;;4.83;;
71490;SDS011;59307;50.060;9.150;2022-07-23T12:22:16;6.87;;;4.80;;
71490;SDS011;59307;50.060;9.150;2022-07-23T12:24:58;7.15;;;4.30;;
71490;SDS011;59307;50.060;9.150;2022-07-23T12:27:24;6.60;;;4.80;;
71490;SDS011;59307;50.060;9.150;2022-07-23T12:29:49;8.65;;;4.53;;
71490;SDS011;59307;50.060;9.150;2022-07-23T12:32:22;8.40;;;5.10;;
71490;SDS011;59307;50.060;9.150;2022-07-23T12:34:48;6.43;;;4.03;;
71490;SDS011;59307;50.060;9.150;2022-07-23T12:37:25;7.38;;;4.65;;
71490;SDS011;59307;50.060;9.150;2022-07-23T12:39:50;7.15;;;4.50;;
71490;SDS011;59307;50.060;9.150;2022-07-23T12:42:16;8.17;;;5.03;;
71490;SDS011;59307;50.060;9.150;2022-07-23T12:44:41;6.20;;;4.60;;
71490;SDS011;59307;50.060;9.150;2022-07-23T12:47:06;6.37;;;4.50;;
71490;SDS011;59307;50.060;9.150;2022-07-23T12:49:31;7.03;;;4.50;;
71490;SDS011;59307;50.060;9.150;2022-07-23T12:51:56;6.47;;;4.50;;
71490;SDS011;59307;50.060;9.150;2022-07-23T12:54:26;7.50;;;4.87;;
71490;SDS011;59307;50.060;9.150;2022-07-23T12:56:52;7.10;;;5.28;;
71490;SDS011;59307;50.060;9.150;2022-07-23T12:59:17;7.17;;;5.27;;
71490;SDS011;59307;50.060;9.150;2022-07-23T13:01:43;9.80;;;4.60;;
71490;SDS011;59307;50.060;9.150;2022-07-23T13:04:14;8.20;;;4.50;;
71490;SDS011;59307;50.060;9.150;2022-07-23T13:09:12;7.10;;;4.68;;
71490;SDS011;59307;50.060;9.150;2022-07-23T13:11:38;7.37;;;4.90;;
71490;SDS011;59307;50.060;9.150;2022-07-23T13:14:03;7.00;;;5.00;;
71490;SDS011;59307;50.060;9.150;2022-07-23T13:16:29;6.07;;;4.67;;
71490;SDS011;59307;50.060;9.150;2022-07-23T13:18:55;8.23;;;4.88;;
71490;SDS011;59307;50.060;9.150;2022-07-23T13:21:23;8.43;;;5.38;;
71490;SDS011;59307;50.060;9.150;2022-07-23T13:23:49;6.60;;;5.03;;
71490;SDS011;59307;50.060;9.150;2022-07-23T13:26:14;10.67;;;5.40;;
71490;SDS011;59307;50.060;9.150;2022-07-23T13:28:40;10.70;;;4.60;;
71490;SDS011;59307;50.060;9.150;2022-07-23T13:31:05;6.00;;;4.50;;
71490;SDS011;59307;50.060;9.150;2022-07-23T13:33:30;9.80;;;4.93;;
71490;SDS011;59307;50.060;9.150;2022-07-23T13:35:55;6.27;;;4.60;;
71490;SDS011;59307;50.060;9.150;2022-07-23T13:38:21;6.30;;;4.63;;
71490;SDS011;59307;50.060;9.150;2022-07-23T13:40:47;6.47;;;4.60;;
71490;SDS011;59307;50.060;9.150;2022-07-23T13:43:13;5.78;;;4.20;;
71490;SDS011;59307;50.060;9.150;2022-07-23T13:45:39;9.38;;;4.80;;
71490;SDS011;59307;50.060;9.150;2022-07-23T13:48:05;6.33;;;4.30;;
71490;SDS011;59307;50.060;9.150;2022-07-23T13:50:31;7.78;;;5.00;;
71490;SDS011;59307;50.060;9.150;2022-07-23T13:52:56;6.17;;;4.63;;
71490;SDS011;59307;50.060;9.150;2022-07-23T13:55:21;5.80;;;4.23;;
71490;SDS011;59307;50.060;9.150;2022-07-23T13:57:47;7.63;;;4.80;;
71490;SDS011;59307;50.060;9.150;2022-07-23T14:00:12;7.87;;;4.47;;
71490;SDS011;59307;50.060;9.150;2022-07-23T14:02:38;6.85;;;4.80;;
71490;SDS011;59307;50.060;9.150;2022-07-23T14:05:08;7.70;;;4.37;;
71490;SDS011;59307;50.060;9.150;2022-07-23T14:07:34;7.50;;;5.30;;
71490;SDS011;59307;50.060;9.150;2022-07-23T14:09:59;6.47;;;4.50;;
71490;SDS011;59307;50.060;9.150;2022-07-23T14:12:25;9.53;;;4.63;;
71490;SDS011;59307;50.060;9.150;2022-07-23T14:14:50;7.73;;;4.13;;
71490;SDS011;59307;50.060;9.150;2022-07-23T14:17:15;7.80;;;5.07;;
71490;SDS011;59307;50.060;9.150;2022-07-23T14:19:40;8.02;;;4.70;;
71490;SDS011;59307;50.060;9.150;2022-07-23T14:22:06;6.23;;;4.60;;
71490;SDS011;59307;50.060;9.150;2022-07-23T14:24:31;7.53;;;4.50;;
71490;SDS011;59307;50.060;9.150;2022-07-23T14:26:56;7.87;;;4.87;;
71490;SDS011;59307;50.060;9.150;2022-07-23T14:29:21;7.33;;;4.70;;
71490;SDS011;59307;50.060;9.150;2022-07-23T14:31:46;8.13;;;4.80;;
71490;SDS011;59307;50.060;9.150;2022-07-23T14:34:12;5.70;;;4.80;;
71490;SDS011;59307;50.060;9.150;2022-07-23T14:36:37;5.80;;;4.57;;
71490;SDS011;59307;50.060;9.150;2022-07-23T14:39:03;7.73;;;4.50;;
71490;SDS011;59307;50.060;9.150;2022-07-23T14:41:28;7.27;;;4.50;;
71490;SDS011;59307;50.060;9.150;2022-07-23T14:43:53;6.47;;;4.60;;
71490;SDS011;59307;50.060;9.150;2022-07-23T14:46:18;6.90;;;4.50;;
71490;SDS011;59307;50.060;9.150;2022-07-23T14:48:44;5.97;;;4.40;;
71490;SDS011;59307;50.060;9.150;2022-07-23T14:51:09;8.37;;;4.57;;
71490;SDS011;59307;50.060;9.150;2022-07-23T14:53:34;6.13;;;4.40;;
71490;SDS011;59307;50.060;9.150;2022-07-23T14:55:59;7.60;;;4.70;;
71490;SDS011;59307;50.060;9.150;2022-07-23T14:58:24;9.80;;;4.70;;
71490;SDS011;59307;50.060;9.150;2022-07-23T15:00:50;7.00;;;4.40;;
71490;SDS011;59307;50.060;9.150;2022-07-23T15:03:15;8.40;;;4.43;;
71490;SDS011;59307;50.060;9.150;2022-07-23T15:05:41;6.80;;;4.30;;
71490;SDS011;59307;50.060;9.150;2022-07-23T15:08:06;6.78;;;4.30;;
71490;SDS011;59307;50.060;9.150;2022-07-23T15:10:31;6.57;;;4.30;;
71490;SDS011;59307;50.060;9.150;2022-07-23T15:12:56;8.43;;;4.67;;
71490;SDS011;59307;50.060;9.150;2022-07-23T15:15:22;7.10;;;4.47;;
71490;SDS011;59307;50.060;9.150;2022-07-23T15:17:47;16.67;;;4.03;;
71490;SDS011;59307;50.060;9.150;2022-07-23T15:20:12;6.40;;;4.27;;
71490;SDS011;59307;50.060;9.150;2022-07-23T15:22:37;6.13;;;4.10;;
71490;SDS011;59307;50.060;9.150;2022-07-23T15:25:03;5.67;;;4.20;;
71490;SDS011;59307;50.060;9.150;2022-07-23T15:27:28;7.07;;;4.63;;
71490;SDS011;59307;50.060;9.150;2022-07-23T15:29:53;7.40;;;4.23;;
71490;SDS011;59307;50.060;9.150;2022-07-23T15:32:18;8.67;;;4.10;;
71490;SDS011;59307;50.060;9.150;2022-07-23T15:34:44;12.07;;;4.60;;
71490;SDS011;59307;50.060;9.150;2022-07-23T15:37:09;6.67;;;4.20;;
71490;SDS011;59307;50.060;9.150;2022-07-23T15:39:34;10.87;;;5.00;;
71490;SDS011;59307;50.060;9.150;2022-07-23T15:42:00;7.00;;;4.47;;